createdAt,value
2023-05-04T00:00:01.007Z,8.3
2023-05-04T00:01:01.589Z,8.2
2023-05-04T00:02:01.182Z,8.2
2023-05-04T00:03:01.817Z,8.2
2023-05-04T00:04:01.493Z,8.1
2023-05-04T00:05:01.222Z,8.1
2023-05-04T00:06:01.655Z,8.1
2023-05-04T00:07:01.235Z,8.1
2023-05-04T00:08:01.817Z,8.1
2023-05-04T00:09:01.440Z,8
2023-05-04T00:10:01.003Z,7.9
2023-05-04T00:11:01.596Z,7.9
2023-05-04T00:12:01.189Z,8
2023-05-04T00:13:01.799Z,7.9
2023-05-04T00:14:01.427Z,7.9
2023-05-04T00:15:00.994Z,8
2023-05-04T00:16:01.601Z,7.9
2023-05-04T00:17:01.220Z,8
2023-05-04T00:18:01.877Z,7.8
2023-05-04T00:19:01.470Z,7.8
2023-05-04T00:20:01.033Z,7.9
2023-05-04T00:21:01.642Z,8
2023-05-04T00:22:01.302Z,7.9
2023-05-04T00:23:01.853Z,7.9
2023-05-04T00:24:01.441Z,7.9
2023-05-04T00:25:01.030Z,7.8
2023-05-04T00:26:01.597Z,7.8
2023-05-04T00:27:01.192Z,7.8
2023-05-04T00:28:01.319Z,7.8
2023-05-04T00:29:01.907Z,7.7
2023-05-04T00:30:01.021Z,7.6
2023-05-04T00:31:01.593Z,7.6
2023-05-04T00:32:01.231Z,7.6
2023-05-04T00:33:01.796Z,7.5
2023-05-04T00:34:01.412Z,7.6
2023-05-04T00:35:01.007Z,7.6
2023-05-04T00:36:01.557Z,7.6
2023-05-04T00:37:01.184Z,7.6
2023-05-04T00:38:01.756Z,7.6
2023-05-04T00:39:01.353Z,7.6
2023-05-04T00:40:00.945Z,7.6
2023-05-04T00:41:01.512Z,7.5
2023-05-04T00:42:01.108Z,7.5
2023-05-04T00:43:01.707Z,7.5
2023-05-04T00:44:01.299Z,7.4
2023-05-04T00:45:01.890Z,7.4
2023-05-04T00:46:01.481Z,7.4
2023-05-04T00:47:01.111Z,7.4
2023-05-04T00:48:01.688Z,7.4
2023-05-04T00:49:01.301Z,7.3
2023-05-04T00:50:02.109Z,7.3
2023-05-04T00:51:01.860Z,7.3
2023-05-04T00:52:01.144Z,7.3
2023-05-04T00:53:01.699Z,7.3
2023-05-04T00:54:01.316Z,7.3
2023-05-04T00:55:01.859Z,7.3
2023-05-04T00:56:01.451Z,7.3
2023-05-04T00:57:01.084Z,7.3
2023-05-04T00:58:01.639Z,7.3
2023-05-04T00:59:01.228Z,7.3
2023-05-04T01:00:01.960Z,7.3
2023-05-04T01:01:01.537Z,7.3
2023-05-04T01:02:01.057Z,7.2
2023-05-04T01:03:01.645Z,7.3
2023-05-04T01:04:01.333Z,7.2
2023-05-04T01:05:01.863Z,7.2
2023-05-04T01:06:01.453Z,7.2
2023-05-04T01:07:01.057Z,7.3
2023-05-04T01:08:01.648Z,7.3
2023-05-04T01:09:01.237Z,7.3
2023-05-04T01:10:01.981Z,7.3
2023-05-04T01:11:01.468Z,7.2
2023-05-04T01:12:01.036Z,7.2
2023-05-04T01:13:01.647Z,7.2
2023-05-04T01:14:01.263Z,7.2
2023-05-04T01:15:01.884Z,7.1
2023-05-04T01:16:01.477Z,7.1
2023-05-04T01:17:01.134Z,7.1
2023-05-04T01:18:01.660Z,7.1
2023-05-04T01:19:01.259Z,7.1
2023-05-04T01:20:02.105Z,7.1
2023-05-04T01:21:01.490Z,7.2
2023-05-04T01:22:01.076Z,7.1
2023-05-04T01:23:01.642Z,7.1
2023-05-04T01:24:01.258Z,7
2023-05-04T01:25:01.869Z,6.9
2023-05-04T01:26:01.493Z,7
2023-05-04T01:27:01.060Z,7.1
2023-05-04T01:28:01.646Z,7
2023-05-04T01:29:01.233Z,7.1
2023-05-04T01:30:01.924Z,7.1
2023-05-04T01:31:01.512Z,7.1
2023-05-04T01:32:01.048Z,7.1
2023-05-04T01:33:01.683Z,7
2023-05-04T01:34:01.281Z,7
2023-05-04T01:35:01.869Z,7
2023-05-04T01:36:01.474Z,7
2023-05-04T01:37:01.061Z,7
2023-05-04T01:38:01.654Z,7
2023-05-04T01:39:01.251Z,7
2023-05-04T01:40:02.111Z,7.1
2023-05-04T01:41:01.497Z,7.1
2023-05-04T01:42:01.106Z,7.1
2023-05-04T01:43:01.712Z,7.1
2023-05-04T01:44:01.325Z,7.1
2023-05-04T01:45:01.899Z,7.1
2023-05-04T01:46:01.518Z,7.1
2023-05-04T01:47:01.123Z,7
2023-05-04T01:48:01.839Z,6.9
2023-05-04T01:49:01.365Z,6.9
2023-05-04T01:50:00.974Z,7
2023-05-04T01:51:01.532Z,7
2023-05-04T01:52:01.142Z,7
2023-05-04T01:53:01.761Z,7
2023-05-04T01:54:01.351Z,7
2023-05-04T01:55:00.924Z,7
2023-05-04T01:56:01.516Z,7
2023-05-04T01:57:01.113Z,7
2023-05-04T01:58:01.727Z,7
2023-05-04T01:59:01.320Z,6.9
2023-05-04T02:00:02.043Z,7
2023-05-04T02:01:01.795Z,7
2023-05-04T02:02:01.211Z,7.1
2023-05-04T02:03:01.734Z,7
2023-05-04T02:04:01.534Z,7
2023-05-04T02:05:00.948Z,7
2023-05-04T02:06:01.524Z,7
2023-05-04T02:07:01.147Z,7
2023-05-04T02:08:01.697Z,7
2023-05-04T02:09:01.334Z,7
2023-05-04T02:10:01.998Z,7
2023-05-04T02:11:01.690Z,7
2023-05-04T02:12:01.085Z,6.9
2023-05-04T02:13:01.768Z,6.9
2023-05-04T02:14:01.374Z,6.9
2023-05-04T02:15:01.904Z,6.9
2023-05-04T02:16:01.565Z,6.9
2023-05-04T02:17:01.146Z,6.8
2023-05-04T02:18:01.776Z,6.8
2023-05-04T02:19:01.377Z,6.8
2023-05-04T02:20:00.963Z,6.8
2023-05-04T02:21:01.536Z,6.7
2023-05-04T02:22:01.127Z,6.7
2023-05-04T02:23:01.744Z,6.8
2023-05-04T02:24:01.342Z,6.8
2023-05-04T02:25:01.916Z,6.8
2023-05-04T02:26:01.511Z,6.8
2023-05-04T02:27:01.119Z,6.8
2023-05-04T02:28:01.702Z,6.8
2023-05-04T02:29:01.297Z,6.8
2023-05-04T02:30:01.966Z,6.8
2023-05-04T02:31:01.580Z,6.7
2023-05-04T02:32:01.262Z,6.6
2023-05-04T02:33:01.709Z,6.6
2023-05-04T02:34:01.349Z,6.6
2023-05-04T02:35:01.907Z,6.7
2023-05-04T02:36:01.500Z,6.7
2023-05-04T02:37:01.099Z,6.6
2023-05-04T02:38:01.681Z,6.5
2023-05-04T02:39:01.286Z,6.5
2023-05-04T02:40:01.941Z,6.6
2023-05-04T02:41:01.561Z,6.6
2023-05-04T02:42:01.092Z,6.7
2023-05-04T02:43:01.681Z,6.7
2023-05-04T02:44:01.302Z,6.6
2023-05-04T02:45:01.871Z,6.6
2023-05-04T02:46:01.510Z,6.6
2023-05-04T02:47:01.090Z,6.6
2023-05-04T02:48:01.738Z,6.7
2023-05-04T02:49:01.306Z,6.6
2023-05-04T02:50:01.955Z,6.6
2023-05-04T02:51:01.600Z,6.6
2023-05-04T02:52:01.144Z,6.6
2023-05-04T02:53:01.708Z,6.6
2023-05-04T02:54:01.295Z,6.7
2023-05-04T02:55:01.874Z,6.7
2023-05-04T02:56:01.476Z,6.6
2023-05-04T02:57:01.115Z,6.6
2023-05-04T02:58:01.646Z,6.6
2023-05-04T02:59:01.270Z,6.5
2023-05-04T03:00:01.932Z,6.5
2023-05-04T03:01:01.540Z,6.6
2023-05-04T03:02:01.100Z,6.5
2023-05-04T03:03:01.705Z,6.5
2023-05-04T03:04:01.338Z,6.6
2023-05-04T03:05:01.946Z,6.6
2023-05-04T03:06:01.570Z,6.4
2023-05-04T03:07:01.135Z,6.4
2023-05-04T03:08:01.721Z,6.5
2023-05-04T03:09:01.334Z,6.4
2023-05-04T03:10:01.910Z,6.5
2023-05-04T03:11:01.516Z,6.4
2023-05-04T03:12:01.150Z,6.3
2023-05-04T03:13:01.740Z,6.4
2023-05-04T03:14:01.352Z,6.3
2023-05-04T03:15:01.942Z,6.4
2023-05-04T03:16:01.542Z,6.4
2023-05-04T03:17:01.156Z,6.4
2023-05-04T03:18:01.767Z,6.4
2023-05-04T03:19:01.371Z,6.5
2023-05-04T03:20:00.985Z,6.5
2023-05-04T03:21:01.541Z,6.5
2023-05-04T03:22:01.159Z,6.4
2023-05-04T03:23:01.721Z,6.3
2023-05-04T03:24:01.346Z,6.3
2023-05-04T03:25:01.900Z,6.2
2023-05-04T03:26:01.493Z,6.2
2023-05-04T03:27:01.086Z,6.2
2023-05-04T03:28:01.665Z,6.2
2023-05-04T03:29:01.275Z,6.3
2023-05-04T03:30:01.898Z,6.3
2023-05-04T03:31:01.496Z,6.4
2023-05-04T03:32:01.142Z,6.3
2023-05-04T03:33:01.719Z,6.3
2023-05-04T03:34:01.402Z,6.3
2023-05-04T03:35:03.881Z,6.3
2023-05-04T03:36:01.445Z,6.3
2023-05-04T03:37:01.040Z,6.3
2023-05-04T03:38:01.646Z,6.2
2023-05-04T03:39:01.232Z,6.2
2023-05-04T03:40:01.876Z,6.1
2023-05-04T03:41:01.475Z,6.2
2023-05-04T03:42:01.084Z,6.2
2023-05-04T03:43:01.666Z,6.2
2023-05-04T03:44:01.257Z,6.1
2023-05-04T03:45:03.828Z,6.2
2023-05-04T03:46:01.442Z,6.2
2023-05-04T03:47:01.048Z,6.2
2023-05-04T03:48:01.686Z,6.2
2023-05-04T03:49:01.299Z,6.2
2023-05-04T03:50:01.970Z,6.2
2023-05-04T03:51:01.658Z,6.2
2023-05-04T03:52:01.084Z,6.1
2023-05-04T03:53:01.676Z,6
2023-05-04T03:54:01.281Z,5.9
2023-05-04T03:55:01.862Z,6
2023-05-04T03:56:01.489Z,6
2023-05-04T03:57:01.104Z,6
2023-05-04T03:58:01.689Z,6
2023-05-04T03:59:01.284Z,6.1
2023-05-04T04:00:01.935Z,6.1
2023-05-04T04:01:01.624Z,6.1
2023-05-04T04:02:01.166Z,6.1
2023-05-04T04:03:01.758Z,6.1
2023-05-04T04:04:01.387Z,6
2023-05-04T04:05:01.918Z,6
2023-05-04T04:06:01.612Z,6
2023-05-04T04:07:01.173Z,6.1
2023-05-04T04:08:01.750Z,6
2023-05-04T04:09:01.337Z,6
2023-05-04T04:10:01.979Z,6
2023-05-04T04:11:01.596Z,6
2023-05-04T04:12:01.178Z,6
2023-05-04T04:13:01.757Z,6
2023-05-04T04:14:01.379Z,6.1
2023-05-04T04:15:00.958Z,6
2023-05-04T04:16:01.561Z,6
2023-05-04T04:17:01.204Z,6
2023-05-04T04:18:01.855Z,6.1
2023-05-04T04:19:01.406Z,6.2
2023-05-04T04:20:00.989Z,6.1
2023-05-04T04:21:01.577Z,6.1
2023-05-04T04:22:01.215Z,6.1
2023-05-04T04:23:01.742Z,6.1
2023-05-04T04:24:01.338Z,6.1
2023-05-04T04:25:01.931Z,6.1
2023-05-04T04:26:01.547Z,6.1
2023-05-04T04:27:01.133Z,6.2
2023-05-04T04:28:01.742Z,6.2
2023-05-04T04:29:01.345Z,6.2
2023-05-04T04:30:02.070Z,6.1
2023-05-04T04:31:01.844Z,6.2
2023-05-04T04:32:01.157Z,6.1
2023-05-04T04:33:01.808Z,6
2023-05-04T04:34:01.411Z,6
2023-05-04T04:35:01.008Z,6
2023-05-04T04:36:01.577Z,6
2023-05-04T04:37:01.173Z,6.1
2023-05-04T04:38:03.697Z,6.1
2023-05-04T04:39:01.291Z,6.2
2023-05-04T04:40:01.962Z,6.3
2023-05-04T04:41:01.656Z,6.3
2023-05-04T04:42:01.137Z,6.3
2023-05-04T04:43:01.711Z,6.4
2023-05-04T04:44:01.315Z,6.5
2023-05-04T04:45:01.913Z,6.6
2023-05-04T04:46:01.506Z,6.6
2023-05-04T04:47:01.114Z,6.5
2023-05-04T04:48:01.717Z,6.6
2023-05-04T04:49:01.873Z,6.6
2023-05-04T04:50:01.486Z,6.6
2023-05-04T04:51:01.086Z,6.6
2023-05-04T04:52:01.700Z,6.7
2023-05-04T04:53:01.299Z,6.6
2023-05-04T04:54:01.912Z,6.5
2023-05-04T04:55:01.545Z,6.6
2023-05-04T04:56:01.125Z,6.6
2023-05-04T04:57:01.696Z,6.6
2023-05-04T04:58:01.293Z,6.6
2023-05-04T04:59:01.865Z,6.6
2023-05-04T05:00:01.488Z,6.6
2023-05-04T05:01:01.083Z,6.7
2023-05-04T05:02:01.653Z,6.8
2023-05-04T05:03:01.356Z,6.8
2023-05-04T05:04:01.844Z,6.8
2023-05-04T05:05:01.497Z,6.7
2023-05-04T05:06:01.026Z,6.7
2023-05-04T05:07:01.607Z,6.8
2023-05-04T05:08:01.196Z,6.8
2023-05-04T05:09:01.788Z,6.8
2023-05-04T05:10:01.422Z,6.9
2023-05-04T05:11:00.968Z,6.9
2023-05-04T05:12:01.549Z,7
2023-05-04T05:13:01.216Z,7
2023-05-04T05:14:01.711Z,7.1
2023-05-04T05:15:01.324Z,7.2
2023-05-04T05:16:01.892Z,7.2
2023-05-04T05:17:01.516Z,7.3
2023-05-04T05:18:01.160Z,7.3
2023-05-04T05:19:01.713Z,7.4
2023-05-04T05:20:01.339Z,7.5
2023-05-04T05:21:01.908Z,7.5
2023-05-04T05:22:01.503Z,7.5
2023-05-04T05:23:01.122Z,7.5
2023-05-04T05:24:01.710Z,7.5
2023-05-04T05:25:01.316Z,7.6
2023-05-04T05:26:03.332Z,7.6
2023-05-04T05:27:01.056Z,7.6
2023-05-04T05:28:01.673Z,7.7
2023-05-04T05:29:01.307Z,7.6
2023-05-04T05:30:02.035Z,7.7
2023-05-04T05:31:01.525Z,7.8
2023-05-04T05:32:01.092Z,7.9
2023-05-04T05:33:01.698Z,7.9
2023-05-04T05:34:01.342Z,7.8
2023-05-04T05:35:01.910Z,7.9
2023-05-04T05:36:01.514Z,7.9
2023-05-04T05:37:01.104Z,7.9
2023-05-04T05:38:01.694Z,8
2023-05-04T05:39:01.311Z,8
2023-05-04T05:40:01.990Z,8
2023-05-04T05:41:01.634Z,8.1
2023-05-04T05:42:01.137Z,8.3
2023-05-04T05:43:01.696Z,8.3
2023-05-04T05:44:01.291Z,8.4
2023-05-04T05:45:01.878Z,8.3
2023-05-04T05:46:01.523Z,8.5
2023-05-04T05:47:01.120Z,8.6
2023-05-04T05:48:01.974Z,8.6
2023-05-04T05:49:01.365Z,8.6
2023-05-04T05:50:00.976Z,8.8
2023-05-04T05:51:01.535Z,8.8
2023-05-04T05:52:01.148Z,8.9
2023-05-04T05:53:01.728Z,9
2023-05-04T05:54:01.339Z,9.1
2023-05-04T05:55:02.858Z,9.3
2023-05-04T05:56:01.602Z,9.3
2023-05-04T05:57:01.186Z,9.3
2023-05-04T05:58:01.769Z,9.4
2023-05-04T05:59:01.358Z,9.5
2023-05-04T06:00:00.972Z,9.7
2023-05-04T06:01:01.529Z,9.8
2023-05-04T06:02:01.170Z,9.8
2023-05-04T06:03:01.861Z,9.9
2023-05-04T06:04:01.504Z,10
2023-05-04T06:05:01.051Z,10.1
2023-05-04T06:06:01.550Z,10.1
2023-05-04T06:07:01.220Z,10.2
2023-05-04T06:08:01.743Z,10.2
2023-05-04T06:09:01.328Z,10.2
2023-05-04T06:10:01.928Z,10.3
2023-05-04T06:11:01.553Z,10.3
2023-05-04T06:12:01.178Z,10.5
2023-05-04T06:13:01.783Z,10.6
2023-05-04T06:14:01.432Z,10.6
2023-05-04T06:15:00.982Z,10.5
2023-05-04T06:16:01.590Z,10.6
2023-05-04T06:17:01.215Z,10.8
2023-05-04T06:18:01.936Z,10.9
2023-05-04T06:19:01.440Z,10.9
2023-05-04T06:20:01.062Z,11
2023-05-04T06:21:01.595Z,11.1
2023-05-04T06:22:01.205Z,11.1
2023-05-04T06:23:01.780Z,11.1
2023-05-04T06:24:01.392Z,11.2
2023-05-04T06:25:03.895Z,11.2
2023-05-04T06:26:01.499Z,11.3
2023-05-04T06:27:01.088Z,11.3
2023-05-04T06:28:01.672Z,11.4
2023-05-04T06:29:01.281Z,11.3
2023-05-04T06:30:02.013Z,11.3
2023-05-04T06:31:01.515Z,11.5
2023-05-04T06:32:01.080Z,11.5
2023-05-04T06:33:01.716Z,11.6
2023-05-04T06:34:01.363Z,11.7
2023-05-04T06:35:01.917Z,11.7
2023-05-04T06:36:01.514Z,11.7
2023-05-04T06:37:01.132Z,11.7
2023-05-04T06:38:01.697Z,11.6
2023-05-04T06:39:01.315Z,11.6
2023-05-04T06:40:01.880Z,11.7
2023-05-04T06:41:01.501Z,11.7
2023-05-04T06:42:01.097Z,11.8
2023-05-04T06:43:01.684Z,11.8
2023-05-04T06:44:01.290Z,11.8
2023-05-04T06:45:01.884Z,11.8
2023-05-04T06:46:01.681Z,11.7
2023-05-04T06:47:01.106Z,11.7
2023-05-04T06:48:01.704Z,11.6
2023-05-04T06:49:01.323Z,11.8
2023-05-04T06:50:01.987Z,11.7
2023-05-04T06:51:03.032Z,11.8
2023-05-04T06:52:01.739Z,11.8
2023-05-04T06:53:01.332Z,11.8
2023-05-04T06:54:01.961Z,11.8
2023-05-04T06:55:01.573Z,11.9
2023-05-04T06:56:01.184Z,12
2023-05-04T06:57:01.761Z,12.1
2023-05-04T06:58:01.356Z,12
2023-05-04T06:59:01.942Z,12.1
2023-05-04T07:00:01.595Z,12
2023-05-04T07:01:01.207Z,12.1
2023-05-04T07:02:01.811Z,12.1
2023-05-04T07:03:01.491Z,12.2
2023-05-04T07:04:01.123Z,12.4
2023-05-04T07:05:01.595Z,12.4
2023-05-04T07:06:01.206Z,12.3
2023-05-04T07:07:01.776Z,12.5
2023-05-04T07:08:01.366Z,12.6
2023-05-04T07:09:00.968Z,12.5
2023-05-04T07:10:01.584Z,12.6
2023-05-04T07:11:01.214Z,12.7
2023-05-04T07:12:01.793Z,12.8
2023-05-04T07:13:01.414Z,13
2023-05-04T07:14:00.990Z,12.9
2023-05-04T07:15:01.590Z,12.9
2023-05-04T07:16:01.194Z,13.1
2023-05-04T07:17:01.751Z,13.2
2023-05-04T07:18:01.472Z,13.2
2023-05-04T07:19:01.923Z,13.3
2023-05-04T07:20:01.671Z,13.3
2023-05-04T07:21:11.159Z,13.3
2023-05-04T07:22:01.726Z,13.3
2023-05-04T07:23:01.322Z,13.6
2023-05-04T07:24:01.894Z,13.7
2023-05-04T07:25:01.486Z,13.8
2023-05-04T07:26:01.110Z,13.8
2023-05-04T07:27:01.686Z,13.8
2023-05-04T07:28:01.274Z,13.8
2023-05-04T07:29:01.863Z,13.7
2023-05-04T07:30:01.559Z,13.8
2023-05-04T07:31:01.252Z,13.9
2023-05-04T07:32:01.703Z,14.1
2023-05-04T07:33:01.403Z,14.2
2023-05-04T07:34:01.974Z,14.2
2023-05-04T07:35:01.563Z,14.1
2023-05-04T07:36:01.186Z,14.2
2023-05-04T07:37:01.753Z,14.5
2023-05-04T07:38:01.346Z,14.6
2023-05-04T07:39:01.941Z,14.6
2023-05-04T07:40:01.547Z,14.6
2023-05-04T07:41:01.175Z,14.5
2023-05-04T07:42:01.745Z,14.7
2023-05-04T07:43:01.370Z,14.8
2023-05-04T07:44:01.931Z,14.9
2023-05-04T07:45:01.516Z,15.1
2023-05-04T07:46:01.138Z,15
2023-05-04T07:47:01.865Z,15.1
2023-05-04T07:48:01.379Z,15.1
2023-05-04T07:49:01.932Z,15.1
2023-05-04T07:50:01.747Z,15.1
2023-05-04T07:51:01.185Z,15
2023-05-04T07:52:01.750Z,15
2023-05-04T07:53:01.356Z,15.1
2023-05-04T07:54:01.913Z,15.3
2023-05-04T07:55:01.498Z,15.5
2023-05-04T07:56:01.125Z,15.4
2023-05-04T07:57:01.673Z,15.3
2023-05-04T07:58:01.259Z,15.3
2023-05-04T07:59:01.845Z,15.2
2023-05-04T08:00:01.471Z,15.4
2023-05-04T08:01:01.019Z,15.6
2023-05-04T08:02:01.621Z,15.8
2023-05-04T08:03:01.271Z,15.8
2023-05-04T08:04:01.818Z,15.9
2023-05-04T08:05:01.470Z,16
2023-05-04T08:06:01.015Z,16
2023-05-04T08:07:01.993Z,16
2023-05-04T08:08:01.255Z,16.2
2023-05-04T08:09:01.823Z,16.3
2023-05-04T08:10:01.442Z,16.2
2023-05-04T08:11:12.262Z,16.2
2023-05-04T08:12:01.566Z,16.2
2023-05-04T08:13:01.167Z,16.1
2023-05-04T08:14:01.756Z,16.2
2023-05-04T08:15:01.347Z,16.1
2023-05-04T08:16:01.925Z,16.3
2023-05-04T08:17:01.552Z,16.5
2023-05-04T08:18:01.157Z,16.6
2023-05-04T08:19:01.732Z,16.7
2023-05-04T08:20:01.324Z,16.8
2023-05-04T08:21:01.910Z,16.8
2023-05-04T08:22:01.713Z,17
2023-05-04T08:23:01.171Z,16.9
2023-05-04T08:24:01.734Z,16.9
2023-05-04T08:25:01.342Z,16.8
2023-05-04T08:26:01.932Z,16.8
2023-05-04T08:27:07.600Z,17
2023-05-04T08:28:01.086Z,17
2023-05-04T08:29:01.682Z,17
2023-05-04T08:30:01.273Z,17.2
2023-05-04T08:31:01.852Z,17.2
2023-05-04T08:32:01.523Z,17.1
2023-05-04T08:33:01.057Z,16.9
2023-05-04T08:34:01.600Z,16.9
2023-05-04T08:35:01.210Z,16.8
2023-05-04T08:36:01.794Z,16.8
2023-05-04T08:37:01.395Z,16.8
2023-05-04T08:38:01.031Z,16.9
2023-05-04T08:39:01.564Z,17
2023-05-04T08:40:01.210Z,17
2023-05-04T08:41:01.755Z,17.2
2023-05-04T08:42:01.351Z,17.3
2023-05-04T08:43:01.936Z,17.3
2023-05-04T08:44:01.538Z,17.5
2023-05-04T08:45:01.174Z,17.4
2023-05-04T08:46:01.749Z,17.3
2023-05-04T08:47:01.367Z,17.4
2023-05-04T08:48:01.975Z,17.5
2023-05-04T08:49:01.651Z,17.7
2023-05-04T08:50:01.204Z,17.8
2023-05-04T08:51:01.767Z,17.9
2023-05-04T08:52:01.356Z,17.8
2023-05-04T08:53:01.943Z,17.7
2023-05-04T08:54:01.565Z,17.7
2023-05-04T08:55:01.205Z,17.8
2023-05-04T08:56:01.753Z,17.7
2023-05-04T08:57:01.383Z,17.8
2023-05-04T08:58:01.970Z,17.8
2023-05-04T08:59:01.577Z,17.7
2023-05-04T09:00:01.177Z,17.7
2023-05-04T09:01:01.860Z,17.6
2023-05-04T09:02:01.457Z,17.5
2023-05-04T09:03:01.050Z,17.5
2023-05-04T09:04:01.611Z,17.7
2023-05-04T09:05:01.283Z,17.7
2023-05-04T09:06:01.836Z,17.8
2023-05-04T09:07:01.464Z,18
2023-05-04T09:08:01.011Z,18
2023-05-04T09:09:01.599Z,18.1
2023-05-04T09:10:01.232Z,18.2
2023-05-04T09:11:01.778Z,18.3
2023-05-04T09:12:01.419Z,18.2
2023-05-04T09:13:02.021Z,18.1
2023-05-04T09:14:01.663Z,18.2
2023-05-04T09:15:01.238Z,18.3
2023-05-04T09:16:01.805Z,18.6
2023-05-04T09:17:01.431Z,18.6
2023-05-04T09:18:01.020Z,18.5
2023-05-04T09:19:01.619Z,18.5
2023-05-04T09:20:01.298Z,18.5
2023-05-04T09:21:01.798Z,18.6
2023-05-04T09:22:01.411Z,18.7
2023-05-04T09:23:00.983Z,18.7
2023-05-04T09:24:01.591Z,18.7
2023-05-04T09:25:01.195Z,18.7
2023-05-04T09:26:01.790Z,18.8
2023-05-04T09:27:01.384Z,18.8
2023-05-04T09:28:00.969Z,18.7
2023-05-04T09:29:01.580Z,18.8
2023-05-04T09:30:01.185Z,18.6
2023-05-04T09:31:01.793Z,18.4
2023-05-04T09:32:01.409Z,18.4
2023-05-04T09:33:01.021Z,18.8
2023-05-04T09:34:01.603Z,18.9
2023-05-04T09:35:01.191Z,18.9
2023-05-04T09:36:01.783Z,18.9
2023-05-04T09:37:01.376Z,19.1
2023-05-04T09:38:01.961Z,19.3
2023-05-04T09:39:01.569Z,19.4
2023-05-04T09:40:01.159Z,19.5
2023-05-04T09:41:01.776Z,19.5
2023-05-04T09:42:01.396Z,19.7
2023-05-04T09:43:01.959Z,19.8
2023-05-04T09:44:01.554Z,19.7
2023-05-04T09:45:01.247Z,19.6
2023-05-04T09:46:01.782Z,19.7
2023-05-04T09:47:01.399Z,19.7
2023-05-04T09:48:00.999Z,19.6
2023-05-04T09:49:01.564Z,19.7
2023-05-04T09:50:01.188Z,19.7
2023-05-04T09:51:01.768Z,19.7
2023-05-04T09:52:01.361Z,19.5
2023-05-04T09:53:01.945Z,19.7
2023-05-04T09:54:01.544Z,19.8
2023-05-04T09:55:01.139Z,20
2023-05-04T09:56:03.459Z,19.9
2023-05-04T09:57:01.294Z,19.9
2023-05-04T09:58:01.914Z,20
2023-05-04T09:59:01.514Z,19.9
2023-05-04T10:00:01.091Z,20.1
2023-05-04T10:01:01.712Z,20.2
2023-05-04T10:02:07.530Z,20.3
2023-05-04T10:03:01.902Z,20.3
2023-05-04T10:04:01.505Z,20.5
2023-05-04T10:05:01.137Z,20.5
2023-05-04T10:06:01.230Z,20.6
2023-05-04T10:07:01.891Z,20.8
2023-05-04T10:08:01.487Z,20.7
2023-05-04T10:09:01.096Z,20.8
2023-05-04T10:10:01.687Z,20.8
2023-05-04T10:11:01.279Z,20.8
2023-05-04T10:12:01.887Z,20.3
2023-05-04T10:13:01.507Z,20.4
2023-05-04T10:14:01.168Z,20.6
2023-05-04T10:15:01.651Z,20.3
2023-05-04T10:16:01.328Z,20.4
2023-05-04T10:17:01.847Z,20.5
2023-05-04T10:18:01.460Z,20.6
2023-05-04T10:19:01.020Z,20.4
2023-05-04T10:20:01.608Z,20.6
2023-05-04T10:21:01.200Z,20.8
2023-05-04T10:22:01.809Z,20.9
2023-05-04T10:23:01.406Z,21.1
2023-05-04T10:24:00.989Z,21
2023-05-04T10:25:01.582Z,21.2
2023-05-04T10:26:01.169Z,21.4
2023-05-04T10:27:01.784Z,21.2
2023-05-04T10:28:01.396Z,21
2023-05-04T10:29:01.954Z,20.7
2023-05-04T10:30:01.584Z,20.7
2023-05-04T10:31:01.177Z,21
2023-05-04T10:32:01.827Z,21.2
2023-05-04T10:33:01.461Z,21.2
2023-05-04T10:34:01.200Z,21.2
2023-05-04T10:35:01.598Z,21.4
2023-05-04T10:36:01.388Z,21.3
2023-05-04T10:37:01.777Z,20.9
2023-05-04T10:38:01.460Z,20.8
2023-05-04T10:39:01.989Z,20.8
2023-05-04T10:40:01.579Z,20.9
2023-05-04T10:41:01.193Z,21.1
2023-05-04T10:42:01.803Z,21.2
2023-05-04T10:43:01.428Z,21.3
2023-05-04T10:44:01.035Z,21.4
2023-05-04T10:45:01.836Z,21.3
2023-05-04T10:46:01.451Z,21.5
2023-05-04T10:47:01.849Z,21.5
2023-05-04T10:48:01.508Z,21.3
2023-05-04T10:49:01.119Z,21.2
2023-05-04T10:50:01.666Z,21.2
2023-05-04T10:51:01.282Z,21.2
2023-05-04T10:52:01.848Z,21.3
2023-05-04T10:53:01.455Z,21.3
2023-05-04T10:54:01.053Z,21.4
2023-05-04T10:55:01.653Z,21.5
2023-05-04T10:56:01.279Z,21.6
2023-05-04T10:57:01.846Z,21.5
2023-05-04T10:58:01.452Z,21.3
2023-05-04T10:59:01.069Z,21.3
2023-05-04T11:00:01.635Z,21.3
2023-05-04T11:01:01.292Z,21.3
2023-05-04T11:02:02.033Z,21.5
2023-05-04T11:03:01.551Z,21.7
2023-05-04T11:04:01.068Z,21.8
2023-05-04T11:05:01.679Z,21.8
2023-05-04T11:06:01.338Z,21.9
2023-05-04T11:07:01.888Z,22
2023-05-04T11:08:01.519Z,21.7
2023-05-04T11:09:01.125Z,21.6
2023-05-04T11:10:01.671Z,21.7
2023-05-04T11:11:01.292Z,21.7
2023-05-04T11:12:01.852Z,21.7
2023-05-04T11:13:02.719Z,21.5
2023-05-04T11:14:02.005Z,21.8
2023-05-04T11:15:01.608Z,21.7
2023-05-04T11:16:01.260Z,21.5
2023-05-04T11:17:02.779Z,21.6
2023-05-04T11:18:01.441Z,21.6
2023-05-04T11:19:01.051Z,21.5
2023-05-04T11:20:01.631Z,21.6
2023-05-04T11:21:01.228Z,21.4
2023-05-04T11:22:01.829Z,21.2
2023-05-04T11:23:01.416Z,21.3
2023-05-04T11:24:01.006Z,21.3
2023-05-04T11:25:01.635Z,21.3
2023-05-04T11:26:01.230Z,21.4
2023-05-04T11:27:01.830Z,21.5
2023-05-04T11:28:01.443Z,21.4
2023-05-04T11:29:01.045Z,21.4
2023-05-04T11:30:01.600Z,21.4
2023-05-04T11:31:01.253Z,21.5
2023-05-04T11:32:01.259Z,21.8
2023-05-04T11:33:02.046Z,21.8
2023-05-04T11:34:01.719Z,21.8
2023-05-04T11:35:01.311Z,21.5
2023-05-04T11:36:01.901Z,21.4
2023-05-04T11:37:01.501Z,21.3
2023-05-04T11:38:01.093Z,21.3
2023-05-04T11:39:01.697Z,21.4
2023-05-04T11:40:01.356Z,21.4
2023-05-04T11:41:01.881Z,21.5
2023-05-04T11:42:01.473Z,21.4
2023-05-04T11:43:01.137Z,21.6
2023-05-04T11:44:01.689Z,21.5
2023-05-04T11:45:01.298Z,21.7
2023-05-04T11:46:01.872Z,22
2023-05-04T11:47:01.494Z,22
2023-05-04T11:48:01.118Z,22.1
2023-05-04T11:49:01.686Z,22.4
2023-05-04T11:50:01.360Z,22.4
2023-05-04T11:51:01.863Z,22.4
2023-05-04T11:52:01.506Z,22.4
2023-05-04T11:53:01.093Z,22.4
2023-05-04T11:54:01.647Z,22.2
2023-05-04T11:55:01.250Z,22.1
2023-05-04T11:56:01.823Z,22
2023-05-04T11:57:01.491Z,22
2023-05-04T11:58:01.992Z,22
2023-05-04T11:59:01.576Z,22.1
2023-05-04T12:00:01.191Z,22.1
2023-05-04T12:01:01.746Z,22
2023-05-04T12:02:01.351Z,22.2
2023-05-04T12:03:01.956Z,22.3
2023-05-04T12:04:01.677Z,22.3
2023-05-04T12:05:01.161Z,22.3
2023-05-04T12:06:01.860Z,22.1
2023-05-04T12:07:01.944Z,22.2
2023-05-04T12:08:01.659Z,22.4
2023-05-04T12:09:01.250Z,22.4
2023-05-04T12:10:01.857Z,22.6
2023-05-04T12:11:01.465Z,22.5
2023-05-04T12:12:01.073Z,22.5
2023-05-04T12:13:01.680Z,22.6
2023-05-04T12:14:01.310Z,22.7
2023-05-04T12:15:01.879Z,22.6
2023-05-04T12:16:01.468Z,22.5
2023-05-04T12:17:01.056Z,22.3
2023-05-04T12:18:02.908Z,22.4
2023-05-04T12:19:01.768Z,22.5
2023-05-04T12:20:01.861Z,22.5
2023-05-04T12:21:02.787Z,22.5
2023-05-04T12:22:02.112Z,22.6
2023-05-04T12:23:01.703Z,22.7
2023-05-04T12:24:01.272Z,22.4
2023-05-04T12:25:01.909Z,22.1
2023-05-04T12:26:01.536Z,22
2023-05-04T12:27:01.118Z,22.1
2023-05-04T12:28:01.707Z,22.3
2023-05-04T12:29:01.313Z,21.9
2023-05-04T12:30:01.912Z,21.9
2023-05-04T12:31:01.502Z,22.2
2023-05-04T12:32:01.117Z,22.5
2023-05-04T12:33:01.768Z,22.6
2023-05-04T12:34:01.357Z,22.6
2023-05-04T12:35:01.946Z,22.7
2023-05-04T12:36:01.535Z,22.8
2023-05-04T12:37:01.125Z,22.8
2023-05-04T12:38:01.730Z,23.1
2023-05-04T12:39:01.336Z,22.9
2023-05-04T12:40:01.968Z,22.7
2023-05-04T12:41:01.560Z,22.8
2023-05-04T12:42:01.187Z,22.7
2023-05-04T12:43:01.737Z,22.7
2023-05-04T12:44:01.353Z,22.9
2023-05-04T12:45:01.917Z,22.8
2023-05-04T12:46:01.551Z,22.9
2023-05-04T12:47:01.130Z,22.8
2023-05-04T12:48:01.738Z,22.5
2023-05-04T12:49:01.346Z,22.3
2023-05-04T12:50:01.954Z,22.4
2023-05-04T12:51:01.563Z,22.5
2023-05-04T12:52:01.201Z,22.3
2023-05-04T12:53:01.767Z,22.3
2023-05-04T12:54:01.386Z,22.3
2023-05-04T12:55:01.948Z,22.3
2023-05-04T12:56:01.598Z,22.5
2023-05-04T12:57:01.152Z,22.4
2023-05-04T12:58:01.715Z,22.5
2023-05-04T12:59:01.326Z,22.6
2023-05-04T13:00:01.915Z,22.5
2023-05-04T13:01:01.550Z,22.6
2023-05-04T13:02:01.118Z,22.8
2023-05-04T13:03:01.774Z,22.9
2023-05-04T13:04:01.352Z,23
2023-05-04T13:05:01.931Z,22.8
2023-05-04T13:06:01.530Z,22.7
2023-05-04T13:07:01.143Z,22.8
2023-05-04T13:08:01.699Z,22.8
2023-05-04T13:09:01.346Z,22.7
2023-05-04T13:10:01.934Z,22.8
2023-05-04T13:11:01.530Z,22.7
2023-05-04T13:12:01.113Z,22.8
2023-05-04T13:13:01.734Z,23
2023-05-04T13:14:01.355Z,23.1
2023-05-04T13:15:01.956Z,23.1
2023-05-04T13:16:01.566Z,23.1
2023-05-04T13:17:01.124Z,23.2
2023-05-04T13:18:01.769Z,22.9
2023-05-04T13:19:01.509Z,22.9
2023-05-04T13:20:01.958Z,22.7
2023-05-04T13:21:01.561Z,22.7
2023-05-04T13:22:01.144Z,23.1
2023-05-04T13:23:01.723Z,23.2
2023-05-04T13:24:01.314Z,23.1
2023-05-04T13:25:02.125Z,23.1
2023-05-04T13:26:01.613Z,23.1
2023-05-04T13:27:01.151Z,22.9
2023-05-04T13:28:01.727Z,22.7
2023-05-04T13:29:01.320Z,22.8
2023-05-04T13:30:01.942Z,22.9
2023-05-04T13:31:01.578Z,22.9
2023-05-04T13:32:01.188Z,23.1
2023-05-04T13:33:05.653Z,22.8
2023-05-04T13:34:01.296Z,22.7
2023-05-04T13:35:01.897Z,22.8
2023-05-04T13:36:01.513Z,22.8
2023-05-04T13:37:01.071Z,22.9